Lobo

Go HERE for most recent data if this page is not up to date.

Jump to table bottom
Date/Time Temp deg F RH % 24 Hr Snow (in) Snow Depth (in) H2O (in)
05/22 12:00 30.0 85 "NAN" 36.3 0.00
05/22 11:00 29.1 100 "NAN" 36.1 0.00
05/22 10:00 27.9 100 "NAN" 36.1 0.00
05/22 09:00 27.0 100 "NAN" 36.4 0.01
05/22 08:00 26.6 100 "NAN" 36.0 0.06
05/22 07:00 26.6 100 "NAN" 35.4 0.00
05/22 06:00 27.3 80 "NAN" 35.2 0.02
05/22 05:00 27.7 94 "NAN" 34.6 0.00
05/22 04:00 31.4 64 "NAN" 34.5 0.00
05/22 03:00 31.8 57 "NAN" 34.5 0.00
05/22 02:00 31.6 58 "NAN" 34.5 0.00
05/22 01:00 31.4 57 "NAN" 34.5 0.00
05/22 00:00 31.9 53 "NAN" 34.5 0.00
05/21 23:00 31.9 55 "NAN" 34.5 0.00
05/21 22:00 32.1 48 "NAN" 34.5 0.00
05/21 21:00 31.9 50 "NAN" 34.5 0.00
05/21 20:00 32.0 58 "NAN" 34.4 0.00
05/21 19:00 32.1 68 "NAN" 34.5 0.00
05/21 18:00 33.6 56 "NAN" 34.6 0.00
05/21 17:00 34.6 55 "NAN" 34.7 0.00
05/21 16:00 35.0 56 "NAN" 34.8 0.00
05/21 15:00 33.8 52 "NAN" 35.4 0.00
05/21 14:00 34.7 58 "NAN" 35.8 0.00
05/21 13:00 35.4 48 "NAN" 36.6 0.00
05/21 12:00 33.1 47 "NAN" 37.3 0.00
05/21 11:00 29.7 62 "NAN" 37.9 0.00
05/21 10:00 28.0 66 "NAN" 37.9 0.00
05/21 09:00 26.1 68 "NAN" 38.0 0.00
05/21 08:00 24.5 83 "NAN" 38.1 0.00
05/21 07:00 23.7 81 "NAN" 38.2 0.00
05/21 06:00 23.6 84 "NAN" 38.2 0.00
05/21 05:00 23.6 78 "NAN" 38.2 0.00
05/21 04:00 23.5 85 "NAN" 38.3 0.00
05/21 03:00 23.7 84 "NAN" 38.3 0.00
05/21 02:00 23.8 85 "NAN" 38.3 0.01
05/21 01:00 23.9 87 "NAN" 38.0 0.03
05/21 00:00 24.7 86 "NAN" 37.4 0.00
.